createdAt,value
2017-12-12T00:00:00.378Z,0
2017-12-12T00:00:40.962Z,0
2017-12-12T00:01:21.557Z,0
2017-12-12T00:02:02.159Z,0
2017-12-12T00:02:42.719Z,0
2017-12-12T00:03:23.338Z,0
2017-12-12T00:04:03.952Z,0
2017-12-12T00:04:44.534Z,0
2017-12-12T00:05:25.112Z,0
2017-12-12T00:06:05.679Z,0
2017-12-12T00:06:46.258Z,0
2017-12-12T00:07:26.841Z,0
2017-12-12T00:08:07.428Z,0
2017-12-12T00:08:47.986Z,0
2017-12-12T00:09:28.594Z,0
2017-12-12T00:10:09.167Z,0
2017-12-12T00:10:49.799Z,0
2017-12-12T00:11:30.350Z,0
2017-12-12T00:12:10.912Z,0
2017-12-12T00:12:51.536Z,0
2017-12-12T00:13:32.060Z,0
2017-12-12T00:14:12.629Z,0
2017-12-12T00:14:53.225Z,0
2017-12-12T00:15:33.773Z,0
2017-12-12T00:16:14.331Z,0
2017-12-12T00:16:54.935Z,0
2017-12-12T00:17:35.501Z,0
2017-12-12T00:18:16.062Z,0
2017-12-12T00:18:56.629Z,0
2017-12-12T00:19:37.196Z,0
2017-12-12T00:20:17.764Z,0
2017-12-12T00:20:58.362Z,0
2017-12-12T00:21:38.949Z,0
2017-12-12T00:22:19.521Z,0
2017-12-12T00:23:00.135Z,0
2017-12-12T00:23:40.724Z,0
2017-12-12T00:24:21.318Z,0
2017-12-12T00:25:01.931Z,0
2017-12-12T00:25:42.539Z,0
2017-12-12T00:26:23.107Z,0
2017-12-12T00:27:03.680Z,0
2017-12-12T00:27:44.257Z,0
2017-12-12T00:28:24.860Z,0
2017-12-12T00:29:05.429Z,0
2017-12-12T00:29:45.999Z,0
2017-12-12T00:30:26.594Z,0
2017-12-12T00:31:07.157Z,0
2017-12-12T00:31:47.731Z,0
2017-12-12T00:32:28.356Z,0
2017-12-12T00:33:08.909Z,0
2017-12-12T00:33:49.478Z,0
2017-12-12T00:34:30.042Z,0
2017-12-12T00:35:10.597Z,0
2017-12-12T00:35:51.164Z,0
2017-12-12T00:36:31.756Z,0
2017-12-12T00:37:12.335Z,0
2017-12-12T00:37:52.921Z,0
2017-12-12T00:38:33.505Z,0
2017-12-12T00:39:14.086Z,0
2017-12-12T00:39:54.646Z,0
2017-12-12T00:40:35.217Z,0
2017-12-12T00:41:15.950Z,0
2017-12-12T00:41:56.531Z,0
2017-12-12T00:42:37.099Z,0
2017-12-12T00:43:17.654Z,0
2017-12-12T00:43:58.242Z,0
2017-12-12T00:44:38.867Z,0
2017-12-12T00:45:19.440Z,0
2017-12-12T00:46:00.002Z,0
2017-12-12T00:46:40.571Z,0
2017-12-12T00:47:21.145Z,0
2017-12-12T00:48:01.727Z,0
2017-12-12T00:48:42.301Z,0
2017-12-12T00:49:22.873Z,0
2017-12-12T00:50:03.437Z,0
2017-12-12T00:50:44.022Z,0
2017-12-12T00:51:24.611Z,0
2017-12-12T00:52:05.198Z,0
2017-12-12T00:52:45.748Z,0
2017-12-12T00:53:26.341Z,0
2017-12-12T00:54:06.910Z,0
2017-12-12T00:54:47.480Z,0
2017-12-12T00:55:28.054Z,0
2017-12-12T00:56:08.618Z,0
2017-12-12T00:56:49.185Z,0
2017-12-12T00:57:29.758Z,0
2017-12-12T00:58:10.336Z,0
2017-12-12T00:58:50.902Z,0
2017-12-12T00:59:31.470Z,0
2017-12-12T01:00:12.066Z,0
2017-12-12T01:00:52.664Z,0
2017-12-12T01:01:33.204Z,0
2017-12-12T01:02:13.800Z,0
2017-12-12T01:02:54.422Z,0
2017-12-12T01:03:34.959Z,0
2017-12-12T01:04:15.528Z,0
2017-12-12T01:04:56.129Z,0
2017-12-12T01:05:36.697Z,0
2017-12-12T01:06:17.292Z,0
2017-12-12T01:06:57.907Z,0
2017-12-12T01:07:38.532Z,0
2017-12-12T01:08:19.110Z,0
2017-12-12T01:08:59.677Z,0
2017-12-12T01:09:40.254Z,0
2017-12-12T01:10:20.823Z,0
2017-12-12T01:11:01.400Z,0
2017-12-12T01:11:41.962Z,0
2017-12-12T01:12:22.567Z,0
2017-12-12T01:13:03.183Z,0
2017-12-12T01:13:43.769Z,0
2017-12-12T01:14:24.339Z,0
2017-12-12T01:15:04.958Z,0
2017-12-12T01:15:45.538Z,0
2017-12-12T01:16:26.123Z,0
2017-12-12T01:17:06.708Z,0
2017-12-12T01:17:47.273Z,0
2017-12-12T01:18:27.897Z,0
2017-12-12T01:19:08.483Z,0
2017-12-12T01:19:49.025Z,0
2017-12-12T01:20:29.584Z,0
2017-12-12T01:21:10.169Z,0
2017-12-12T01:21:50.729Z,0
2017-12-12T01:22:31.290Z,0
2017-12-12T01:23:11.889Z,0
2017-12-12T01:23:52.471Z,0
2017-12-12T01:24:33.068Z,0
2017-12-12T01:25:13.639Z,0
2017-12-12T01:25:54.217Z,0
2017-12-12T01:26:34.787Z,0
2017-12-12T01:27:15.337Z,0
2017-12-12T01:27:55.902Z,0
2017-12-12T01:28:36.507Z,0
2017-12-12T01:29:17.086Z,0
2017-12-12T01:29:57.663Z,0
2017-12-12T01:30:38.243Z,0
2017-12-12T01:31:18.809Z,0
2017-12-12T01:31:59.390Z,0
2017-12-12T01:32:39.973Z,0
2017-12-12T01:33:20.553Z,0
2017-12-12T01:34:01.107Z,0
2017-12-12T01:34:41.761Z,0
2017-12-12T01:35:22.304Z,0
2017-12-12T01:36:02.869Z,0
2017-12-12T01:36:43.496Z,0
2017-12-12T01:37:24.098Z,0
2017-12-12T01:38:04.632Z,0
2017-12-12T01:38:45.201Z,0
2017-12-12T01:39:25.789Z,0
2017-12-12T01:40:06.359Z,0
2017-12-12T01:40:46.911Z,0
2017-12-12T01:41:27.482Z,0
2017-12-12T01:42:08.079Z,0
2017-12-12T01:42:48.645Z,0
2017-12-12T01:43:29.220Z,0
2017-12-12T01:44:09.809Z,0
2017-12-12T01:44:50.387Z,0
2017-12-12T01:45:31.013Z,0
2017-12-12T01:46:11.547Z,0
2017-12-12T01:46:52.121Z,0
2017-12-12T01:47:32.697Z,0
2017-12-12T01:48:13.275Z,0
2017-12-12T01:48:53.838Z,0
2017-12-12T01:49:34.456Z,0
2017-12-12T01:50:15.030Z,0
2017-12-12T01:50:55.597Z,0
2017-12-12T01:51:36.151Z,0
2017-12-12T01:52:16.726Z,0
2017-12-12T01:52:57.312Z,0
2017-12-12T01:53:37.914Z,0
2017-12-12T01:54:18.501Z,0
2017-12-12T01:54:59.106Z,0
2017-12-12T01:55:39.678Z,0
2017-12-12T01:56:20.254Z,0
2017-12-12T01:57:00.831Z,0
2017-12-12T01:57:41.401Z,0
2017-12-12T01:58:21.968Z,0
2017-12-12T01:59:02.538Z,0
2017-12-12T01:59:43.105Z,0
2017-12-12T02:00:23.677Z,0
2017-12-12T02:01:04.228Z,0
2017-12-12T02:01:44.805Z,0
2017-12-12T02:02:25.394Z,0
2017-12-12T02:03:05.962Z,0
2017-12-12T02:03:46.549Z,0
2017-12-12T02:04:27.117Z,0
2017-12-12T02:05:07.671Z,0
2017-12-12T02:05:48.249Z,0
2017-12-12T02:06:28.845Z,0
2017-12-12T02:07:09.455Z,0
2017-12-12T02:07:50.016Z,0
2017-12-12T02:08:30.622Z,0
2017-12-12T02:09:11.292Z,0
2017-12-12T02:09:51.859Z,0
2017-12-12T02:10:32.449Z,0
2017-12-12T02:11:13.024Z,0
2017-12-12T02:11:53.597Z,0
2017-12-12T02:12:34.162Z,0
2017-12-12T02:13:14.726Z,0
2017-12-12T02:13:55.297Z,0
2017-12-12T02:14:35.871Z,0
2017-12-12T02:15:16.432Z,0
2017-12-12T02:15:56.990Z,0
2017-12-12T02:16:37.583Z,0
2017-12-12T02:17:18.152Z,0
2017-12-12T02:17:58.853Z,0
2017-12-12T02:18:39.349Z,0
2017-12-12T02:19:19.947Z,0
2017-12-12T02:20:00.585Z,0
2017-12-12T02:20:41.184Z,0
2017-12-12T02:21:21.825Z,0
2017-12-12T02:22:02.396Z,0
2017-12-12T02:22:42.970Z,0
2017-12-12T02:23:23.547Z,0
2017-12-12T02:24:04.111Z,0
2017-12-12T02:24:44.684Z,0
2017-12-12T02:25:25.253Z,0
2017-12-12T02:26:05.825Z,0
2017-12-12T02:26:46.389Z,0
2017-12-12T02:27:26.966Z,0
2017-12-12T02:28:07.536Z,0
2017-12-12T02:28:48.107Z,0
2017-12-12T02:29:28.759Z,0
2017-12-12T02:30:09.341Z,0
2017-12-12T02:30:49.959Z,0
2017-12-12T02:31:30.537Z,0
2017-12-12T02:32:11.172Z,0
2017-12-12T02:32:51.785Z,0
2017-12-12T02:33:32.346Z,0
2017-12-12T02:34:12.921Z,0
2017-12-12T02:34:53.517Z,0
2017-12-12T02:35:34.087Z,0
2017-12-12T02:36:14.649Z,0
2017-12-12T02:36:55.224Z,0
2017-12-12T02:37:35.814Z,0
2017-12-12T02:38:16.377Z,0
2017-12-12T02:38:56.953Z,0
2017-12-12T02:39:37.510Z,0
2017-12-12T02:40:18.061Z,0
2017-12-12T02:40:58.628Z,0
2017-12-12T02:41:39.199Z,0
2017-12-12T02:42:19.790Z,0
2017-12-12T02:43:00.387Z,0
2017-12-12T02:43:40.947Z,0
2017-12-12T02:44:21.539Z,0
2017-12-12T02:45:02.121Z,0
2017-12-12T02:45:42.725Z,0
2017-12-12T02:46:23.311Z,0
2017-12-12T02:47:03.872Z,0
2017-12-12T02:47:44.449Z,0
2017-12-12T02:48:25.027Z,0
2017-12-12T02:49:05.598Z,0
2017-12-12T02:49:46.177Z,0
2017-12-12T02:50:26.740Z,0
2017-12-12T02:51:07.326Z,0
2017-12-12T02:51:47.915Z,0
2017-12-12T02:52:28.503Z,0
2017-12-12T02:53:09.065Z,0
2017-12-12T02:53:49.640Z,0
2017-12-12T02:54:30.208Z,0
2017-12-12T02:55:10.783Z,0
2017-12-12T02:55:51.346Z,0
2017-12-12T02:56:31.880Z,0
2017-12-12T02:57:12.446Z,0
2017-12-12T02:57:53.026Z,0
2017-12-12T02:58:33.594Z,0
2017-12-12T02:59:14.165Z,0
2017-12-12T02:59:54.745Z,0
2017-12-12T03:00:35.305Z,0
2017-12-12T03:01:15.880Z,0
2017-12-12T03:01:56.440Z,0
2017-12-12T03:02:37.015Z,0
2017-12-12T03:03:17.588Z,0
2017-12-12T03:03:58.168Z,0
2017-12-12T03:04:38.731Z,0
2017-12-12T03:05:19.321Z,0
2017-12-12T03:05:59.887Z,0
2017-12-12T03:06:40.497Z,0
2017-12-12T03:07:21.111Z,0
2017-12-12T03:08:01.655Z,0
2017-12-12T03:08:42.225Z,0
2017-12-12T03:09:22.819Z,0
2017-12-12T03:10:03.384Z,0
2017-12-12T03:10:43.969Z,0
2017-12-12T03:11:24.565Z,0
2017-12-12T03:12:05.131Z,0
2017-12-12T03:12:45.697Z,0
2017-12-12T03:13:26.260Z,0
2017-12-12T03:14:06.829Z,0
2017-12-12T03:14:47.405Z,0
2017-12-12T03:15:27.981Z,0
2017-12-12T03:16:08.562Z,0
2017-12-12T03:16:49.128Z,0
2017-12-12T03:17:29.719Z,0
2017-12-12T03:18:10.291Z,0
2017-12-12T03:18:50.878Z,0
2017-12-12T03:19:31.454Z,0
2017-12-12T03:20:12.045Z,0
2017-12-12T03:20:52.714Z,0
2017-12-12T03:21:33.226Z,0
2017-12-12T03:22:13.801Z,0
2017-12-12T03:22:54.373Z,0
2017-12-12T03:23:34.944Z,0
2017-12-12T03:24:15.510Z,0
2017-12-12T03:24:56.082Z,0
2017-12-12T03:25:36.646Z,0
2017-12-12T03:26:17.261Z,0
2017-12-12T03:26:57.924Z,0
2017-12-12T03:27:38.472Z,0
2017-12-12T03:28:19.106Z,0
2017-12-12T03:28:59.677Z,0
2017-12-12T03:29:40.240Z,0
2017-12-12T03:30:20.810Z,0
2017-12-12T03:31:01.384Z,0
2017-12-12T03:31:41.941Z,0
2017-12-12T03:32:22.507Z,0
2017-12-12T03:33:03.093Z,0
2017-12-12T03:33:43.660Z,0
2017-12-12T03:34:24.245Z,0
2017-12-12T03:35:04.813Z,0
2017-12-12T03:35:45.380Z,0
2017-12-12T03:36:25.934Z,0
2017-12-12T03:37:06.499Z,0
2017-12-12T03:37:47.092Z,0
2017-12-12T03:38:27.682Z,0
2017-12-12T03:39:08.259Z,0
2017-12-12T03:39:48.828Z,0
2017-12-12T03:40:29.388Z,0
2017-12-12T03:41:09.946Z,0
2017-12-12T03:41:50.514Z,0
2017-12-12T03:42:31.098Z,0
2017-12-12T03:43:11.726Z,0
2017-12-12T03:43:52.315Z,0
2017-12-12T03:44:32.890Z,0
2017-12-12T03:45:13.458Z,0
2017-12-12T03:45:54.045Z,0
2017-12-12T03:46:34.600Z,0
2017-12-12T03:47:15.173Z,0
2017-12-12T03:47:55.731Z,0
2017-12-12T03:48:36.288Z,0
2017-12-12T03:49:16.847Z,0
2017-12-12T03:49:57.415Z,0
2017-12-12T03:50:38.004Z,0
2017-12-12T03:51:18.612Z,0
2017-12-12T03:51:59.234Z,0
2017-12-12T03:52:39.817Z,0
2017-12-12T03:53:20.398Z,0
2017-12-12T03:54:00.958Z,0
2017-12-12T03:54:41.526Z,0
2017-12-12T03:55:22.076Z,0
2017-12-12T03:56:02.674Z,0
2017-12-12T03:56:43.250Z,0
2017-12-12T03:57:23.858Z,0
2017-12-12T03:58:04.437Z,0
2017-12-12T03:58:44.996Z,0
2017-12-12T03:59:25.575Z,0
2017-12-12T04:00:06.160Z,0
2017-12-12T04:00:46.743Z,0
2017-12-12T04:01:27.324Z,0
2017-12-12T04:02:07.895Z,0
2017-12-12T04:02:48.474Z,0
2017-12-12T04:03:29.055Z,0
2017-12-12T04:04:09.671Z,0
2017-12-12T04:04:50.242Z,0
2017-12-12T04:05:30.933Z,0
2017-12-12T04:06:11.552Z,0
2017-12-12T04:06:52.088Z,0
2017-12-12T04:07:32.793Z,0
2017-12-12T04:08:13.378Z,0
2017-12-12T04:08:53.932Z,0
2017-12-12T04:09:34.503Z,0
2017-12-12T04:10:15.056Z,0
2017-12-12T04:10:55.613Z,0
2017-12-12T04:11:36.191Z,0
2017-12-12T04:12:16.763Z,0
2017-12-12T04:12:57.344Z,0
2017-12-12T04:13:37.910Z,0
2017-12-12T04:14:18.483Z,0
2017-12-12T04:14:59.109Z,0
2017-12-12T04:15:39.770Z,0
2017-12-12T04:16:20.282Z,0
2017-12-12T04:17:00.881Z,0
2017-12-12T04:17:41.466Z,0
2017-12-12T04:18:22.077Z,0
2017-12-12T04:19:02.635Z,0
2017-12-12T04:19:43.259Z,0
2017-12-12T04:20:23.837Z,0
2017-12-12T04:21:04.405Z,0
2017-12-12T04:21:45.023Z,0
2017-12-12T04:22:25.556Z,0
2017-12-12T04:23:06.133Z,0
2017-12-12T04:23:46.718Z,0
2017-12-12T04:24:27.320Z,0
2017-12-12T04:25:07.915Z,0
2017-12-12T04:25:48.511Z,0
2017-12-12T04:26:29.121Z,0
2017-12-12T04:27:09.707Z,0
2017-12-12T04:27:50.263Z,0
2017-12-12T04:28:30.850Z,0
2017-12-12T04:29:11.448Z,0
2017-12-12T04:29:52.022Z,0
2017-12-12T04:30:32.594Z,0
2017-12-12T04:31:13.256Z,0
2017-12-12T04:31:53.857Z,0
2017-12-12T04:32:34.438Z,0
2017-12-12T04:33:15.038Z,0
2017-12-12T04:33:55.616Z,0
2017-12-12T04:34:36.180Z,0
2017-12-12T04:35:16.757Z,0
2017-12-12T04:35:57.344Z,0
2017-12-12T04:36:37.903Z,0
2017-12-12T04:37:18.528Z,0
2017-12-12T04:37:59.108Z,0
2017-12-12T04:38:39.684Z,0
2017-12-12T04:39:20.295Z,0
2017-12-12T04:40:00.860Z,0
2017-12-12T04:40:41.415Z,0
2017-12-12T04:41:21.984Z,0
2017-12-12T04:42:02.550Z,0
2017-12-12T04:42:43.189Z,0
2017-12-12T04:43:23.808Z,0
2017-12-12T04:44:04.407Z,0
2017-12-12T04:44:45.008Z,0
2017-12-12T04:45:25.595Z,0
2017-12-12T04:46:06.206Z,0
2017-12-12T04:46:46.777Z,0
2017-12-12T04:47:27.345Z,0
2017-12-12T04:48:07.951Z,0
2017-12-12T04:48:48.533Z,0
2017-12-12T04:49:29.200Z,0
2017-12-12T04:50:09.796Z,0
2017-12-12T04:50:50.378Z,0
2017-12-12T04:51:30.999Z,0
2017-12-12T04:52:11.559Z,0
2017-12-12T04:52:52.157Z,0
2017-12-12T04:53:32.754Z,0
2017-12-12T04:54:13.301Z,0
2017-12-12T04:54:53.910Z,0
2017-12-12T04:55:34.476Z,0
2017-12-12T04:56:15.061Z,0
2017-12-12T04:56:55.628Z,0
2017-12-12T04:57:36.199Z,0
2017-12-12T04:58:16.773Z,0
2017-12-12T04:58:57.355Z,0
2017-12-12T04:59:37.956Z,0
2017-12-12T05:00:18.527Z,0
2017-12-12T05:00:59.095Z,0
2017-12-12T05:01:39.660Z,0
2017-12-12T05:02:20.234Z,0
2017-12-12T05:03:00.821Z,0
2017-12-12T05:03:41.379Z,0
2017-12-12T05:04:21.934Z,0
2017-12-12T05:05:02.542Z,0
2017-12-12T05:05:43.140Z,0
2017-12-12T05:06:23.734Z,0
2017-12-12T05:07:04.301Z,0
2017-12-12T05:07:44.867Z,0
2017-12-12T05:08:25.515Z,0
2017-12-12T05:09:06.087Z,0
2017-12-12T05:09:46.669Z,0
2017-12-12T05:10:27.235Z,0
2017-12-12T05:11:07.817Z,0
2017-12-12T05:11:48.442Z,0
2017-12-12T05:12:29.038Z,0
2017-12-12T05:13:09.612Z,0
2017-12-12T05:13:50.185Z,0
2017-12-12T05:14:30.768Z,0
2017-12-12T05:15:11.343Z,0
2017-12-12T05:15:51.927Z,0
2017-12-12T05:16:32.514Z,0
2017-12-12T05:17:13.118Z,0
2017-12-12T05:17:53.701Z,0
2017-12-12T05:18:34.293Z,0
2017-12-12T05:19:14.865Z,0
2017-12-12T05:19:55.473Z,0
2017-12-12T05:20:36.105Z,0
2017-12-12T05:21:16.716Z,0
2017-12-12T05:21:57.307Z,0
2017-12-12T05:22:37.900Z,0
2017-12-12T05:23:18.588Z,0
2017-12-12T05:23:59.223Z,0
2017-12-12T05:24:39.799Z,0
2017-12-12T05:25:20.374Z,0
2017-12-12T05:26:00.986Z,0
2017-12-12T05:26:41.657Z,0
2017-12-12T05:27:22.300Z,0
2017-12-12T05:28:02.937Z,0
2017-12-12T05:28:43.508Z,0
2017-12-12T05:29:24.100Z,0
2017-12-12T05:30:04.716Z,0
2017-12-12T05:30:45.330Z,0
2017-12-12T05:31:25.912Z,0
2017-12-12T05:32:06.489Z,0
2017-12-12T05:32:47.056Z,0
2017-12-12T05:33:27.634Z,0
2017-12-12T05:34:08.209Z,0
2017-12-12T05:34:48.771Z,0
2017-12-12T05:35:29.352Z,0
2017-12-12T05:36:26.162Z,0
2017-12-12T05:37:21.086Z,0
2017-12-12T05:38:01.652Z,0
2017-12-12T05:38:42.218Z,0
2017-12-12T05:39:22.957Z,0
2017-12-12T05:40:03.530Z,0
2017-12-12T05:40:44.103Z,0
2017-12-12T05:41:24.687Z,0
2017-12-12T05:42:05.254Z,0
2017-12-12T05:42:45.826Z,0
2017-12-12T05:43:26.444Z,0
2017-12-12T05:44:07.011Z,0
2017-12-12T05:44:47.585Z,0
2017-12-12T05:45:28.183Z,0
2017-12-12T05:46:08.763Z,0
2017-12-12T05:46:49.350Z,0
2017-12-12T05:47:30.062Z,0
2017-12-12T05:48:10.636Z,0
2017-12-12T05:48:51.231Z,0
2017-12-12T05:49:31.833Z,0
2017-12-12T05:50:12.425Z,0
2017-12-12T05:50:52.990Z,0
2017-12-12T05:51:33.585Z,0
2017-12-12T05:52:14.194Z,0
2017-12-12T05:52:54.801Z,0
2017-12-12T05:53:35.416Z,0
2017-12-12T05:54:16.081Z,0
2017-12-12T05:54:56.705Z,0
2017-12-12T05:55:37.292Z,0
2017-12-12T05:56:17.870Z,0
2017-12-12T05:56:58.473Z,0
2017-12-12T05:57:39.060Z,0
2017-12-12T05:58:20.012Z,0
2017-12-12T05:59:01.180Z,0
2017-12-12T05:59:42.343Z,0
2017-12-12T06:00:23.517Z,0
2017-12-12T06:01:04.191Z,0
2017-12-12T06:01:44.774Z,0
2017-12-12T06:02:25.419Z,0
2017-12-12T06:03:06.059Z,0
2017-12-12T06:03:47.180Z,0
2017-12-12T06:04:27.756Z,0
2017-12-12T06:05:08.516Z,0
2017-12-12T06:05:49.079Z,0
2017-12-12T06:06:29.650Z,0
2017-12-12T06:07:10.244Z,0
2017-12-12T06:07:50.850Z,0
2017-12-12T06:08:31.487Z,0
2017-12-12T06:09:12.077Z,0
2017-12-12T06:09:52.670Z,0
2017-12-12T06:10:33.272Z,0
2017-12-12T06:11:13.892Z,0
2017-12-12T06:11:54.505Z,0
2017-12-12T06:12:35.099Z,0
2017-12-12T06:13:15.722Z,0
2017-12-12T06:13:56.369Z,0
2017-12-12T06:14:36.974Z,0
2017-12-12T06:15:17.562Z,0
2017-12-12T06:15:58.214Z,0
2017-12-12T06:16:38.958Z,0
2017-12-12T06:17:19.437Z,0
2017-12-12T06:18:00.027Z,0
2017-12-12T06:18:40.628Z,0
2017-12-12T06:19:21.248Z,0
2017-12-12T06:20:01.828Z,0
2017-12-12T06:20:42.431Z,0
2017-12-12T06:21:23.034Z,0
2017-12-12T06:22:03.611Z,0
2017-12-12T06:22:44.204Z,0
2017-12-12T06:23:24.773Z,0
2017-12-12T06:24:05.357Z,0
2017-12-12T06:24:47.089Z,0
2017-12-12T06:25:27.599Z,0
2017-12-12T06:26:08.167Z,0
2017-12-12T06:26:48.746Z,0
2017-12-12T06:27:29.316Z,0
2017-12-12T06:28:09.909Z,0
2017-12-12T06:28:50.496Z,0
2017-12-12T06:29:31.131Z,0
2017-12-12T06:30:11.699Z,0
2017-12-12T06:30:52.523Z,0
2017-12-12T06:31:33.119Z,0
2017-12-12T06:32:13.676Z,0
2017-12-12T06:32:54.251Z,0
2017-12-12T06:33:34.819Z,0
2017-12-12T06:34:15.411Z,0
2017-12-12T06:34:55.990Z,0
2017-12-12T06:35:36.553Z,0
2017-12-12T06:36:17.151Z,0
2017-12-12T06:36:57.744Z,0
2017-12-12T06:37:38.301Z,0
2017-12-12T06:38:18.953Z,0
2017-12-12T06:38:59.512Z,0
2017-12-12T06:39:40.083Z,0
2017-12-12T06:40:20.673Z,0
2017-12-12T06:41:01.237Z,0
2017-12-12T06:41:41.802Z,0
2017-12-12T06:42:22.376Z,0
2017-12-12T06:43:02.968Z,0
2017-12-12T06:43:43.542Z,0
2017-12-12T06:44:24.116Z,0
2017-12-12T06:45:04.851Z,0
2017-12-12T06:45:45.296Z,0
2017-12-12T06:46:25.867Z,0
2017-12-12T06:47:06.467Z,0
2017-12-12T06:47:47.049Z,0
2017-12-12T06:48:27.649Z,0
2017-12-12T06:49:08.234Z,0
2017-12-12T06:49:48.843Z,0
2017-12-12T06:50:29.388Z,0
2017-12-12T06:51:09.970Z,0
2017-12-12T06:51:50.528Z,0
2017-12-12T06:52:31.115Z,0
2017-12-12T06:53:11.744Z,0
2017-12-12T06:53:52.354Z,0
2017-12-12T06:54:32.883Z,0
2017-12-12T06:55:13.457Z,0
2017-12-12T06:55:54.023Z,0
2017-12-12T06:56:34.607Z,0
2017-12-12T06:57:15.175Z,0
2017-12-12T06:57:55.814Z,0
2017-12-12T06:58:36.416Z,0
2017-12-12T06:59:16.982Z,0
2017-12-12T06:59:57.553Z,0
2017-12-12T07:00:38.136Z,0
2017-12-12T07:01:18.885Z,0
2017-12-12T07:01:59.452Z,0
2017-12-12T07:02:40.040Z,0
2017-12-12T07:03:20.633Z,0
2017-12-12T07:04:01.208Z,0
2017-12-12T07:04:41.774Z,0
2017-12-12T07:05:22.375Z,0
2017-12-12T07:06:02.938Z,0
2017-12-12T07:06:43.518Z,0
2017-12-12T07:07:24.084Z,0
2017-12-12T07:08:04.651Z,0
2017-12-12T07:08:45.261Z,0
2017-12-12T07:09:25.815Z,0
2017-12-12T07:10:06.424Z,0
2017-12-12T07:10:46.993Z,0
2017-12-12T07:11:27.650Z,0
2017-12-12T07:12:08.261Z,0
2017-12-12T07:12:48.830Z,0
2017-12-12T07:13:29.400Z,0
2017-12-12T07:14:09.968Z,0
2017-12-12T07:14:50.565Z,0
2017-12-12T07:15:31.151Z,0
2017-12-12T07:16:11.740Z,0
2017-12-12T07:16:52.318Z,0
2017-12-12T07:17:32.932Z,0
2017-12-12T07:18:13.503Z,0
2017-12-12T07:18:54.067Z,0
2017-12-12T07:19:34.630Z,0
2017-12-12T07:20:15.211Z,0
2017-12-12T07:20:55.801Z,0
2017-12-12T07:21:36.379Z,0
2017-12-12T07:22:16.976Z,0
2017-12-12T07:22:57.537Z,0
2017-12-12T07:23:38.123Z,0
2017-12-12T07:24:18.785Z,0
2017-12-12T07:24:59.400Z,0
2017-12-12T07:25:40.043Z,0
2017-12-12T07:26:20.647Z,0
2017-12-12T07:27:01.236Z,0
2017-12-12T07:27:41.828Z,0
2017-12-12T07:28:22.465Z,0
2017-12-12T07:29:03.092Z,0
2017-12-12T07:29:43.629Z,0
2017-12-12T07:30:24.210Z,0
2017-12-12T07:31:04.849Z,0
2017-12-12T07:31:45.413Z,0
2017-12-12T07:32:26.009Z,0
2017-12-12T07:33:06.542Z,0
2017-12-12T07:33:47.110Z,0
2017-12-12T07:34:27.699Z,0
2017-12-12T07:35:08.278Z,0
2017-12-12T07:35:48.843Z,0
2017-12-12T07:36:29.432Z,0
2017-12-12T07:37:10.001Z,0
2017-12-12T07:37:50.597Z,0
2017-12-12T07:38:31.220Z,0
2017-12-12T07:41:05.365Z,0
2017-12-12T07:41:45.964Z,0
2017-12-12T07:42:26.714Z,0
2017-12-12T07:43:07.375Z,0
2017-12-12T07:43:47.960Z,0
2017-12-12T07:44:28.573Z,0
2017-12-12T07:45:09.651Z,0
2017-12-12T07:45:50.207Z,0
2017-12-12T07:46:30.776Z,0
2017-12-12T07:47:11.414Z,0
2017-12-12T07:47:52.025Z,0
2017-12-12T07:48:32.634Z,0
2017-12-12T07:49:13.239Z,0
2017-12-12T07:49:53.817Z,0
2017-12-12T07:50:34.367Z,0
2017-12-12T07:51:14.961Z,0
2017-12-12T07:51:55.517Z,0
2017-12-12T07:52:36.082Z,0
2017-12-12T07:53:16.648Z,5
2017-12-12T07:53:57.211Z,5
2017-12-12T07:54:37.782Z,5
2017-12-12T07:55:18.345Z,5
2017-12-12T07:55:58.947Z,5
2017-12-12T07:56:39.536Z,5
2017-12-12T07:57:20.101Z,5
2017-12-12T07:58:00.678Z,5
2017-12-12T07:58:41.267Z,5
2017-12-12T07:59:21.833Z,5
2017-12-12T08:00:02.394Z,5
2017-12-12T08:00:43.180Z,5
2017-12-12T08:01:23.559Z,5
2017-12-12T08:02:04.148Z,5
2017-12-12T08:02:44.752Z,5
2017-12-12T08:03:25.340Z,5
2017-12-12T08:04:05.912Z,5
2017-12-12T08:04:46.513Z,5
2017-12-12T08:05:27.064Z,5
2017-12-12T08:06:07.662Z,5
2017-12-12T08:06:48.240Z,5
2017-12-12T08:07:28.826Z,5
2017-12-12T08:08:09.402Z,5
2017-12-12T08:08:49.960Z,5
2017-12-12T08:09:30.532Z,5
2017-12-12T08:10:11.115Z,5
2017-12-12T08:10:51.718Z,5
2017-12-12T08:11:32.272Z,5
2017-12-12T08:12:12.857Z,5
2017-12-12T08:12:53.464Z,5
2017-12-12T08:13:34.038Z,5
2017-12-12T08:14:14.607Z,5
2017-12-12T08:14:55.415Z,5
2017-12-12T08:15:35.968Z,5
2017-12-12T08:16:16.525Z,5
2017-12-12T08:16:57.112Z,5
2017-12-12T08:17:37.730Z,5
2017-12-12T08:18:18.302Z,5
2017-12-12T08:18:58.874Z,5
2017-12-12T08:19:39.514Z,5
2017-12-12T08:20:20.067Z,5
2017-12-12T08:21:00.646Z,0
2017-12-12T08:21:41.217Z,0
2017-12-12T08:22:21.890Z,0
2017-12-12T08:23:02.471Z,0
2017-12-12T08:23:43.027Z,0
2017-12-12T08:24:23.604Z,0
2017-12-12T08:25:04.171Z,0
2017-12-12T08:25:44.827Z,0
2017-12-12T08:26:25.447Z,0
2017-12-12T08:27:06.029Z,0
2017-12-12T08:27:46.591Z,0
2017-12-12T08:28:27.218Z,0
2017-12-12T08:29:07.857Z,0
2017-12-12T08:29:48.440Z,0
2017-12-12T08:30:28.994Z,0
2017-12-12T08:31:09.600Z,0
2017-12-12T08:31:50.168Z,0
2017-12-12T08:32:30.740Z,0
2017-12-12T08:33:11.327Z,0
2017-12-12T08:33:51.879Z,5
2017-12-12T08:34:32.445Z,5
2017-12-12T08:35:13.011Z,5
2017-12-12T08:35:53.599Z,5
2017-12-12T08:36:34.165Z,5
2017-12-12T08:37:14.763Z,5
2017-12-12T08:37:55.332Z,5
2017-12-12T08:38:35.926Z,5
2017-12-12T08:39:16.498Z,5
2017-12-12T08:39:57.117Z,5
2017-12-12T08:40:37.680Z,5
2017-12-12T08:41:18.268Z,5
2017-12-12T08:41:58.860Z,5
2017-12-12T08:42:39.452Z,5
2017-12-12T08:43:20.028Z,5
2017-12-12T08:44:00.615Z,5
2017-12-12T08:44:41.273Z,5
2017-12-12T08:45:21.859Z,10
2017-12-12T08:46:02.443Z,10
2017-12-12T08:46:43.023Z,10
2017-12-12T08:47:23.612Z,10
2017-12-12T08:48:04.203Z,10
2017-12-12T08:48:44.862Z,10
2017-12-12T08:49:25.430Z,10
2017-12-12T08:50:05.982Z,10
2017-12-12T08:50:46.595Z,10
2017-12-12T08:51:27.224Z,10
2017-12-12T08:52:07.834Z,10
2017-12-12T08:52:48.485Z,10
2017-12-12T08:53:29.144Z,10
2017-12-12T08:54:09.714Z,10
2017-12-12T08:54:50.283Z,5
2017-12-12T08:55:30.861Z,5
2017-12-12T08:56:11.408Z,5
2017-12-12T08:56:52.004Z,5
2017-12-12T08:57:32.629Z,5
2017-12-12T08:58:13.203Z,10
2017-12-12T08:58:53.802Z,10
2017-12-12T08:59:34.455Z,10
2017-12-12T09:00:15.025Z,10
2017-12-12T09:00:55.645Z,10
2017-12-12T09:01:36.207Z,15
2017-12-12T09:02:16.792Z,15
2017-12-12T09:02:57.384Z,15
2017-12-12T09:03:37.927Z,15
2017-12-12T09:04:18.488Z,20
2017-12-12T09:04:59.077Z,20
2017-12-12T09:05:39.640Z,20
2017-12-12T09:06:20.235Z,20
2017-12-12T09:07:00.827Z,20
2017-12-12T09:07:41.411Z,20
2017-12-12T09:08:22.007Z,20
2017-12-12T09:09:02.620Z,20
2017-12-12T09:09:43.205Z,15
2017-12-12T09:10:23.768Z,15
2017-12-12T09:11:04.387Z,10
2017-12-12T09:11:44.948Z,10
2017-12-12T09:12:25.519Z,10
2017-12-12T09:13:06.102Z,10
2017-12-12T09:13:46.723Z,5
2017-12-12T09:14:27.351Z,5
2017-12-12T09:15:07.919Z,5
2017-12-12T09:15:48.488Z,10
2017-12-12T09:16:29.136Z,10
2017-12-12T09:17:09.707Z,10
2017-12-12T09:17:50.304Z,10
2017-12-12T09:18:30.883Z,10
2017-12-12T09:19:11.467Z,10
2017-12-12T09:19:52.022Z,10
2017-12-12T09:20:32.601Z,5
2017-12-12T09:21:13.220Z,5
2017-12-12T09:21:53.801Z,5
2017-12-12T09:22:34.354Z,5
2017-12-12T09:23:14.919Z,5
2017-12-12T09:23:55.486Z,5
2017-12-12T09:24:36.055Z,5
2017-12-12T09:25:16.687Z,10
2017-12-12T09:25:57.200Z,10
2017-12-12T09:26:37.766Z,15
2017-12-12T09:27:18.440Z,10
2017-12-12T09:27:59.003Z,10
2017-12-12T09:28:39.608Z,10
2017-12-12T09:29:20.190Z,10
2017-12-12T09:30:00.864Z,10
2017-12-12T09:30:41.347Z,10
2017-12-12T09:31:21.927Z,10
2017-12-12T09:32:02.544Z,10
2017-12-12T09:32:43.123Z,10
2017-12-12T09:33:23.690Z,10
2017-12-12T09:34:04.472Z,10
2017-12-12T09:34:44.914Z,10
2017-12-12T09:35:25.508Z,5
2017-12-12T09:36:06.079Z,5
2017-12-12T09:36:46.760Z,10
2017-12-12T09:37:27.343Z,10
2017-12-12T09:38:07.912Z,10
2017-12-12T09:38:48.479Z,10
2017-12-12T09:39:29.065Z,10
2017-12-12T09:40:09.688Z,10
2017-12-12T09:40:50.275Z,10
2017-12-12T09:41:30.924Z,10
2017-12-12T09:42:11.465Z,10
2017-12-12T09:42:52.040Z,15
2017-12-12T09:43:32.656Z,15
2017-12-12T09:44:13.225Z,15
2017-12-12T09:44:53.795Z,20
2017-12-12T09:45:34.363Z,20
2017-12-12T09:46:14.956Z,25
2017-12-12T09:46:55.532Z,30
2017-12-12T09:47:36.214Z,35
2017-12-12T09:48:16.802Z,35
2017-12-12T09:48:57.426Z,40
2017-12-12T09:49:38.118Z,40
2017-12-12T09:50:18.691Z,35
2017-12-12T09:50:59.324Z,35
2017-12-12T09:51:39.959Z,35
2017-12-12T09:52:20.551Z,40
2017-12-12T09:53:01.133Z,35
2017-12-12T09:53:41.685Z,40
2017-12-12T09:54:22.278Z,40
2017-12-12T09:55:02.863Z,35
2017-12-12T09:55:43.446Z,30
2017-12-12T09:56:24.029Z,25
2017-12-12T09:57:04.595Z,20
2017-12-12T09:57:45.184Z,25
2017-12-12T09:58:25.762Z,20
2017-12-12T09:59:06.321Z,20
2017-12-12T09:59:46.981Z,20